sensor_id;sensor_type;location;lat;lon;timestamp;pressure;altitude;pressure_sealevel;temperature;humidity
70434;BME280;57876;47.792;12.960;2023-02-12T00:00:48;98581.41;;;16.37;38.08
70434;BME280;57876;47.792;12.960;2023-02-12T00:03:12;98573.50;;;16.36;37.83
70434;BME280;57876;47.792;12.960;2023-02-12T00:05:38;98578.13;;;16.35;38.03
70434;BME280;57876;47.792;12.960;2023-02-12T00:08:03;98561.25;;;16.28;37.82
70434;BME280;57876;47.792;12.960;2023-02-12T00:10:27;98561.25;;;16.28;38.15
70434;BME280;57876;47.792;12.960;2023-02-12T00:12:55;98563.19;;;16.22;37.81
70434;BME280;57876;47.792;12.960;2023-02-12T00:15:20;98576.00;;;16.22;38.18
70434;BME280;57876;47.792;12.960;2023-02-12T00:17:44;98583.38;;;16.21;38.02
70434;BME280;57876;47.792;12.960;2023-02-12T00:20:09;98588.25;;;16.24;38.10
70434;BME280;57876;47.792;12.960;2023-02-12T00:22:33;98587.19;;;16.20;38.34
70434;BME280;57876;47.792;12.960;2023-02-12T00:24:58;98588.81;;;16.21;38.22
70434;BME280;57876;47.792;12.960;2023-02-12T00:27:23;98580.38;;;16.18;38.30
70434;BME280;57876;47.792;12.960;2023-02-12T00:29:47;98600.31;;;16.18;37.98
70434;BME280;57876;47.792;12.960;2023-02-12T00:32:12;98611.22;;;16.18;38.16
70434;BME280;57876;47.792;12.960;2023-02-12T00:34:37;98609.59;;;16.17;37.74
70434;BME280;57876;47.792;12.960;2023-02-12T00:37:01;98596.50;;;16.09;37.92
70434;BME280;57876;47.792;12.960;2023-02-12T00:39:26;98608.25;;;16.10;38.28
70434;BME280;57876;47.792;12.960;2023-02-12T00:41:50;98609.88;;;16.11;38.21
70434;BME280;57876;47.792;12.960;2023-02-12T00:44:15;98613.97;;;16.08;38.31
70434;BME280;57876;47.792;12.960;2023-02-12T00:46:39;98607.69;;;16.07;38.36
70434;BME280;57876;47.792;12.960;2023-02-12T00:49:03;98604.97;;;16.07;38.22
70434;BME280;57876;47.792;12.960;2023-02-12T00:51:28;98608.50;;;16.03;38.13
70434;BME280;57876;47.792;12.960;2023-02-12T00:53:52;98630.63;;;16.06;37.89
70434;BME280;57876;47.792;12.960;2023-02-12T00:56:16;98622.16;;;16.03;37.94
70434;BME280;57876;47.792;12.960;2023-02-12T00:58:41;98606.09;;;15.96;38.36
70434;BME280;57876;47.792;12.960;2023-02-12T01:01:06;98617.50;;;16.03;38.39
70434;BME280;57876;47.792;12.960;2023-02-12T01:03:30;98614.53;;;15.95;38.04
70434;BME280;57876;47.792;12.960;2023-02-12T01:05:54;98615.09;;;15.97;38.25
70434;BME280;57876;47.792;12.960;2023-02-12T01:08:20;98610.19;;;15.99;37.92
70434;BME280;57876;47.792;12.960;2023-02-12T01:10:44;98617.53;;;15.98;37.90
70434;BME280;57876;47.792;12.960;2023-02-12T01:13:17;98608.25;;;15.89;38.33
70434;BME280;57876;47.792;12.960;2023-02-12T01:15:41;98615.91;;;15.87;38.25
70434;BME280;57876;47.792;12.960;2023-02-12T01:18:06;98614.28;;;15.86;38.22
70434;BME280;57876;47.792;12.960;2023-02-12T01:20:30;98626.25;;;15.90;38.25
70434;BME280;57876;47.792;12.960;2023-02-12T01:22:55;98616.44;;;15.89;38.45
70434;BME280;57876;47.792;12.960;2023-02-12T01:25:19;98621.66;;;15.91;38.07
70434;BME280;57876;47.792;12.960;2023-02-12T01:27:43;98612.09;;;15.83;38.52
70434;BME280;57876;47.792;12.960;2023-02-12T01:30:10;98620.28;;;15.83;38.06
70434;BME280;57876;47.792;12.960;2023-02-12T01:32:35;98608.25;;;15.84;38.39
70434;BME280;57876;47.792;12.960;2023-02-12T01:35:00;98602.25;;;15.82;38.15
70434;BME280;57876;47.792;12.960;2023-02-12T01:37:24;98589.16;;;15.79;38.56
70434;BME280;57876;47.792;12.960;2023-02-12T01:39:49;98588.09;;;15.80;38.46
70434;BME280;57876;47.792;12.960;2023-02-12T01:42:14;98594.63;;;15.79;38.34
70434;BME280;57876;47.792;12.960;2023-02-12T01:44:44;98600.63;;;15.81;38.07
70434;BME280;57876;47.792;12.960;2023-02-12T01:47:16;98597.34;;;15.79;38.35
70434;BME280;57876;47.792;12.960;2023-02-12T01:49:44;98612.09;;;15.78;38.19
70434;BME280;57876;47.792;12.960;2023-02-12T01:52:19;98609.06;;;15.74;38.30
70434;BME280;57876;47.792;12.960;2023-02-12T01:54:43;98621.91;;;15.74;38.21
70434;BME280;57876;47.792;12.960;2023-02-12T01:57:10;98631.47;;;15.76;38.39
70434;BME280;57876;47.792;12.960;2023-02-12T01:59:37;98612.66;;;15.70;38.22
70434;BME280;57876;47.792;12.960;2023-02-12T02:02:03;98621.34;;;15.77;38.33
70434;BME280;57876;47.792;12.960;2023-02-12T02:04:31;98611.53;;;15.71;38.31
70434;BME280;57876;47.792;12.960;2023-02-12T02:07:04;98631.75;;;15.75;38.21
70434;BME280;57876;47.792;12.960;2023-02-12T02:09:33;98616.19;;;15.70;38.20
70434;BME280;57876;47.792;12.960;2023-02-12T02:11:58;98618.06;;;15.64;38.10
70434;BME280;57876;47.792;12.960;2023-02-12T02:14:42;98621.66;;;15.70;38.47
70434;BME280;57876;47.792;12.960;2023-02-12T02:17:31;98626.00;;;15.71;38.38
70434;BME280;57876;47.792;12.960;2023-02-12T02:22:27;98627.09;;;15.70;38.40
70434;BME280;57876;47.792;12.960;2023-02-12T02:25:18;98626.53;;;15.68;38.40
70434;BME280;57876;47.792;12.960;2023-02-12T02:30:54;98625.16;;;15.66;38.46
70434;BME280;57876;47.792;12.960;2023-02-12T02:33:44;98614.78;;;15.62;38.54
70434;BME280;57876;47.792;12.960;2023-02-12T02:39:49;98600.91;;;15.64;38.18
70434;BME280;57876;47.792;12.960;2023-02-12T02:44:53;98601.41;;;15.61;38.61
70434;BME280;57876;47.792;12.960;2023-02-12T02:47:20;98599.53;;;15.61;38.55
70434;BME280;57876;47.792;12.960;2023-02-12T02:50:08;98599.53;;;15.61;38.36
70434;BME280;57876;47.792;12.960;2023-02-12T02:52:42;98615.59;;;15.63;38.35
70434;BME280;57876;47.792;12.960;2023-02-12T02:55:10;98608.53;;;15.62;38.26
70434;BME280;57876;47.792;12.960;2023-02-12T02:57:40;98608.78;;;15.66;38.55
70434;BME280;57876;47.792;12.960;2023-02-12T03:00:21;98606.88;;;15.66;38.68
70434;BME280;57876;47.792;12.960;2023-02-12T03:02:51;98592.41;;;15.66;38.33
70434;BME280;57876;47.792;12.960;2023-02-12T03:05:23;98600.09;;;15.69;38.02
70434;BME280;57876;47.792;12.960;2023-02-12T03:07:55;98595.69;;;15.68;38.17
70434;BME280;57876;47.792;12.960;2023-02-12T03:10:30;98606.09;;;15.71;38.37
70434;BME280;57876;47.792;12.960;2023-02-12T03:13:12;98604.47;;;15.70;38.33
70434;BME280;57876;47.792;12.960;2023-02-12T03:15:44;98609.91;;;15.70;38.46
70434;BME280;57876;47.792;12.960;2023-02-12T03:18:19;98620.53;;;15.71;38.30
70434;BME280;57876;47.792;12.960;2023-02-12T03:20:48;98620.84;;;15.70;38.45
70434;BME280;57876;47.792;12.960;2023-02-12T03:23:21;98615.59;;;15.68;38.24
70434;BME280;57876;47.792;12.960;2023-02-12T03:25:56;98611.25;;;15.67;38.34
70434;BME280;57876;47.792;12.960;2023-02-12T03:28:27;98621.38;;;15.72;38.23
70434;BME280;57876;47.792;12.960;2023-02-12T03:33:46;98628.19;;;15.69;38.16
70434;BME280;57876;47.792;12.960;2023-02-12T03:38:51;98622.41;;;15.66;38.33
70434;BME280;57876;47.792;12.960;2023-02-12T03:41:28;98634.69;;;15.68;38.19
70434;BME280;57876;47.792;12.960;2023-02-12T03:44:05;98622.41;;;15.66;38.39
70434;BME280;57876;47.792;12.960;2023-02-12T03:46:54;98626.28;;;15.70;38.46
70434;BME280;57876;47.792;12.960;2023-02-12T03:49:34;98638.00;;;15.70;38.17
70434;BME280;57876;47.792;12.960;2023-02-12T03:52:02;98630.59;;;15.66;38.09
70434;BME280;57876;47.792;12.960;2023-02-12T03:54:27;98620.25;;;15.62;38.55
70434;BME280;57876;47.792;12.960;2023-02-12T03:59:29;98623.56;;;15.70;38.82
70434;BME280;57876;47.792;12.960;2023-02-12T04:01:56;98616.44;;;15.69;38.33
70434;BME280;57876;47.792;12.960;2023-02-12T04:04:22;98611.84;;;15.69;38.57
70434;BME280;57876;47.792;12.960;2023-02-12T04:06:48;98616.19;;;15.70;38.38
70434;BME280;57876;47.792;12.960;2023-02-12T04:09:14;98605.50;;;15.63;38.37
70434;BME280;57876;47.792;12.960;2023-02-12T04:17:02;98642.66;;;15.70;38.50
70434;BME280;57876;47.792;12.960;2023-02-12T04:19:48;98646.44;;;15.69;38.54
70434;BME280;57876;47.792;12.960;2023-02-12T04:25:20;98647.53;;;15.62;38.64
70434;BME280;57876;47.792;12.960;2023-02-12T04:28:02;98659.81;;;15.65;38.66
70434;BME280;57876;47.792;12.960;2023-02-12T04:30:37;98661.97;;;15.68;38.28
70434;BME280;57876;47.792;12.960;2023-02-12T04:33:06;98655.44;;;15.64;38.82
70434;BME280;57876;47.792;12.960;2023-02-12T04:35:40;98671.25;;;15.67;38.40
70434;BME280;57876;47.792;12.960;2023-02-12T04:38:27;98670.16;;;15.68;38.38
70434;BME280;57876;47.792;12.960;2023-02-12T04:40:55;98668.78;;;15.66;38.46
70434;BME280;57876;47.792;12.960;2023-02-12T04:43:31;98657.88;;;15.66;38.61
70434;BME280;57876;47.792;12.960;2023-02-12T04:45:57;98657.88;;;15.66;38.26
70434;BME280;57876;47.792;12.960;2023-02-12T04:48:22;98665.81;;;15.62;38.37
70434;BME280;57876;47.792;12.960;2023-02-12T04:50:46;98669.91;;;15.64;38.50
70434;BME280;57876;47.792;12.960;2023-02-12T04:53:10;98663.88;;;15.62;38.66
70434;BME280;57876;47.792;12.960;2023-02-12T04:55:35;98678.63;;;15.61;38.27
70434;BME280;57876;47.792;12.960;2023-02-12T04:58:00;98666.06;;;15.60;38.58
70434;BME280;57876;47.792;12.960;2023-02-12T05:00:25;98673.16;;;15.61;38.41
70434;BME280;57876;47.792;12.960;2023-02-12T05:02:50;98664.44;;;15.64;38.33
70434;BME280;57876;47.792;12.960;2023-02-12T05:05:14;98659.53;;;15.67;38.39
70434;BME280;57876;47.792;12.960;2023-02-12T05:07:39;98661.47;;;15.71;38.40
70434;BME280;57876;47.792;12.960;2023-02-12T05:10:03;98663.94;;;15.73;38.35
70434;BME280;57876;47.792;12.960;2023-02-12T05:12:28;98659.28;;;15.73;38.48
70434;BME280;57876;47.792;12.960;2023-02-12T05:14:52;98673.75;;;15.79;38.41
70434;BME280;57876;47.792;12.960;2023-02-12T05:17:16;98665.56;;;15.79;38.31
70434;BME280;57876;47.792;12.960;2023-02-12T05:19:41;98647.28;;;15.74;38.56
70434;BME280;57876;47.792;12.960;2023-02-12T05:22:05;98662.03;;;15.78;38.23
70434;BME280;57876;47.792;12.960;2023-02-12T05:24:30;98656.56;;;15.73;38.54
70434;BME280;57876;47.792;12.960;2023-02-12T05:26:54;98671.00;;;15.79;38.73
70434;BME280;57876;47.792;12.960;2023-02-12T05:29:18;98663.94;;;15.78;38.21
70434;BME280;57876;47.792;12.960;2023-02-12T05:31:43;98654.09;;;15.77;38.48
70434;BME280;57876;47.792;12.960;2023-02-12T05:34:11;98663.94;;;15.78;38.61
70434;BME280;57876;47.792;12.960;2023-02-12T05:36:36;98662.56;;;15.75;38.43
70434;BME280;57876;47.792;12.960;2023-02-12T05:39:01;98672.38;;;15.76;38.59
70434;BME280;57876;47.792;12.960;2023-02-12T05:41:26;98677.59;;;15.83;38.53
70434;BME280;57876;47.792;12.960;2023-02-12T05:43:51;98689.56;;;15.87;38.76
70434;BME280;57876;47.792;12.960;2023-02-12T05:46:17;98677.03;;;15.81;38.34
70434;BME280;57876;47.792;12.960;2023-02-12T05:48:42;98677.59;;;15.83;38.38
70434;BME280;57876;47.792;12.960;2023-02-12T05:51:09;98696.94;;;15.92;38.32
70434;BME280;57876;47.792;12.960;2023-02-12T05:53:35;98685.22;;;15.96;38.27
70434;BME280;57876;47.792;12.960;2023-02-12T05:56:18;98690.13;;;15.99;38.71
70434;BME280;57876;47.792;12.960;2023-02-12T05:58:51;98694.22;;;16.02;38.68
70434;BME280;57876;47.792;12.960;2023-02-12T06:01:22;98688.75;;;16.02;38.23
70434;BME280;57876;47.792;12.960;2023-02-12T06:03:47;98699.41;;;16.08;38.63
70434;BME280;57876;47.792;12.960;2023-02-12T06:06:12;98693.41;;;16.12;38.47
70434;BME280;57876;47.792;12.960;2023-02-12T06:08:36;98689.84;;;16.16;38.34
70434;BME280;57876;47.792;12.960;2023-02-12T06:11:03;98693.66;;;16.20;38.19
70434;BME280;57876;47.792;12.960;2023-02-12T06:13:29;98690.94;;;16.20;38.25
70434;BME280;57876;47.792;12.960;2023-02-12T06:15:53;98691.50;;;16.22;38.12
70434;BME280;57876;47.792;12.960;2023-02-12T06:18:18;98690.13;;;16.25;38.56
70434;BME280;57876;47.792;12.960;2023-02-12T06:20:42;98688.72;;;16.27;38.39
70434;BME280;57876;47.792;12.960;2023-02-12T06:23:06;98682.47;;;16.27;38.51
70434;BME280;57876;47.792;12.960;2023-02-12T06:25:31;98697.19;;;16.36;38.65
70434;BME280;57876;47.792;12.960;2023-02-12T06:27:55;98704.84;;;16.34;38.52
70434;BME280;57876;47.792;12.960;2023-02-12T06:30:20;98702.66;;;16.31;38.14
70434;BME280;57876;47.792;12.960;2023-02-12T06:32:48;98716.31;;;16.36;38.38
70434;BME280;57876;47.792;12.960;2023-02-12T06:35:12;98718.75;;;16.38;38.31
70434;BME280;57876;47.792;12.960;2023-02-12T06:37:37;98706.47;;;16.30;37.96
70434;BME280;57876;47.792;12.960;2023-02-12T06:40:02;98718.75;;;16.38;38.45
70434;BME280;57876;47.792;12.960;2023-02-12T06:42:26;98716.88;;;16.33;38.80
70434;BME280;57876;47.792;12.960;2023-02-12T06:44:51;98720.41;;;16.34;38.48
70434;BME280;57876;47.792;12.960;2023-02-12T06:47:15;98733.78;;;16.40;38.28
70434;BME280;57876;47.792;12.960;2023-02-12T06:49:39;98734.06;;;16.44;38.29
70434;BME280;57876;47.792;12.960;2023-02-12T06:52:04;98735.44;;;16.41;38.40
70434;BME280;57876;47.792;12.960;2023-02-12T06:54:29;98724.50;;;16.41;38.68
70434;BME280;57876;47.792;12.960;2023-02-12T06:56:54;98732.16;;;16.44;38.28
70434;BME280;57876;47.792;12.960;2023-02-12T06:59:18;98740.88;;;16.51;38.52
70434;BME280;57876;47.792;12.960;2023-02-12T07:01:49;98726.13;;;16.47;38.28
70434;BME280;57876;47.792;12.960;2023-02-12T07:04:16;98722.28;;;16.43;38.21
70434;BME280;57876;47.792;12.960;2023-02-12T07:06:40;98723.41;;;16.47;38.71
70434;BME280;57876;47.792;12.960;2023-02-12T07:09:05;98732.41;;;16.48;38.38
70434;BME280;57876;47.792;12.960;2023-02-12T07:11:32;98732.13;;;16.55;38.41
70434;BME280;57876;47.792;12.960;2023-02-12T07:13:57;98734.88;;;16.55;38.67
70434;BME280;57876;47.792;12.960;2023-02-12T07:16:21;98732.94;;;16.55;38.27
70434;BME280;57876;47.792;12.960;2023-02-12T07:18:46;98740.31;;;16.60;38.61
70434;BME280;57876;47.792;12.960;2023-02-12T07:21:20;98727.75;;;16.54;38.66
70434;BME280;57876;47.792;12.960;2023-02-12T07:23:46;98728.84;;;16.52;38.55
70434;BME280;57876;47.792;12.960;2023-02-12T07:26:12;98735.13;;;16.58;38.73
70434;BME280;57876;47.792;12.960;2023-02-12T07:28:37;98728.56;;;16.54;38.17
70434;BME280;57876;47.792;12.960;2023-02-12T07:31:21;98728.03;;;16.57;38.59
70434;BME280;57876;47.792;12.960;2023-02-12T07:33:47;98738.13;;;16.62;38.60
70434;BME280;57876;47.792;12.960;2023-02-12T07:36:16;98743.31;;;16.63;38.21
70434;BME280;57876;47.792;12.960;2023-02-12T07:38:41;98750.41;;;16.64;38.73
70434;BME280;57876;47.792;12.960;2023-02-12T07:41:33;98747.41;;;16.66;38.45
70434;BME280;57876;47.792;12.960;2023-02-12T07:44:04;98733.22;;;16.59;38.41
70434;BME280;57876;47.792;12.960;2023-02-12T07:46:36;98737.31;;;16.61;38.24
70434;BME280;57876;47.792;12.960;2023-02-12T07:49:03;98750.69;;;16.68;38.35
70434;BME280;57876;47.792;12.960;2023-02-12T07:51:28;98747.66;;;16.64;38.10
70434;BME280;57876;47.792;12.960;2023-02-12T07:53:53;98749.03;;;16.67;38.77
70434;BME280;57876;47.792;12.960;2023-02-12T07:56:20;98743.56;;;16.67;38.37
70434;BME280;57876;47.792;12.960;2023-02-12T07:58:46;98738.41;;;16.60;38.23
70434;BME280;57876;47.792;12.960;2023-02-12T08:03:38;98740.84;;;16.62;38.37
70434;BME280;57876;47.792;12.960;2023-02-12T08:06:11;98734.31;;;16.63;38.34
70434;BME280;57876;47.792;12.960;2023-02-12T08:08:36;98744.13;;;16.64;38.39
70434;BME280;57876;47.792;12.960;2023-02-12T08:11:02;98745.22;;;16.68;38.18
70434;BME280;57876;47.792;12.960;2023-02-12T08:13:26;98735.09;;;16.68;38.69
70434;BME280;57876;47.792;12.960;2023-02-12T08:15:59;98729.66;;;16.68;38.23
70434;BME280;57876;47.792;12.960;2023-02-12T08:18:23;98735.09;;;16.68;37.94
70434;BME280;57876;47.792;12.960;2023-02-12T08:20:47;98736.75;;;16.69;38.37
70434;BME280;57876;47.792;12.960;2023-02-12T08:23:12;98733.75;;;16.71;38.20
70434;BME280;57876;47.792;12.960;2023-02-12T08:25:36;98732.63;;;16.67;38.53
70434;BME280;57876;47.792;12.960;2023-02-12T08:28:00;98731.56;;;16.68;38.46
70434;BME280;57876;47.792;12.960;2023-02-12T08:30:25;98740.28;;;16.75;38.29
70434;BME280;57876;47.792;12.960;2023-02-12T08:32:49;98718.97;;;16.67;38.42
70434;BME280;57876;47.792;12.960;2023-02-12T08:35:14;98727.97;;;16.72;38.43
70434;BME280;57876;47.792;12.960;2023-02-12T08:37:38;98725.25;;;16.72;37.89
70434;BME280;57876;47.792;12.960;2023-02-12T08:40:02;98724.44;;;16.72;38.24
70434;BME280;57876;47.792;12.960;2023-02-12T08:42:27;98706.69;;;16.69;38.52
70434;BME280;57876;47.792;12.960;2023-02-12T08:44:52;98706.41;;;16.71;38.09
70434;BME280;57876;47.792;12.960;2023-02-12T08:47:16;98714.06;;;16.74;38.25
70434;BME280;57876;47.792;12.960;2023-02-12T08:49:40;98716.53;;;16.76;38.36
70434;BME280;57876;47.792;12.960;2023-02-12T08:52:05;98706.13;;;16.78;38.12
70434;BME280;57876;47.792;12.960;2023-02-12T08:54:30;98696.84;;;16.73;38.70
70434;BME280;57876;47.792;12.960;2023-02-12T08:56:57;98713.78;;;16.76;38.59
70434;BME280;57876;47.792;12.960;2023-02-12T08:59:21;98696.31;;;16.71;38.51
70434;BME280;57876;47.792;12.960;2023-02-12T09:01:49;98708.03;;;16.72;38.38
70434;BME280;57876;47.792;12.960;2023-02-12T09:04:16;98712.94;;;16.75;38.39
70434;BME280;57876;47.792;12.960;2023-02-12T09:06:41;98701.75;;;16.71;38.11
70434;BME280;57876;47.792;12.960;2023-02-12T09:09:05;98709.72;;;16.78;38.34
70434;BME280;57876;47.792;12.960;2023-02-12T09:11:33;98703.38;;;16.72;38.29
70434;BME280;57876;47.792;12.960;2023-02-12T09:14:06;98721.47;;;16.79;38.26
70434;BME280;57876;47.792;12.960;2023-02-12T09:16:33;98711.59;;;16.78;38.24
70434;BME280;57876;47.792;12.960;2023-02-12T09:18:58;98719.00;;;16.77;38.10
70434;BME280;57876;47.792;12.960;2023-02-12T09:21:23;98725.00;;;16.79;38.63
70434;BME280;57876;47.792;12.960;2023-02-12T09:23:48;98726.13;;;16.78;38.25
70434;BME280;57876;47.792;12.960;2023-02-12T09:26:15;98721.16;;;16.75;38.44
70434;BME280;57876;47.792;12.960;2023-02-12T09:28:39;98729.66;;;16.79;38.20
70434;BME280;57876;47.792;12.960;2023-02-12T09:31:16;98722.25;;;16.74;38.15
70434;BME280;57876;47.792;12.960;2023-02-12T09:33:41;98732.91;;;16.81;38.13
70434;BME280;57876;47.792;12.960;2023-02-12T09:36:11;98732.63;;;16.82;38.17
70434;BME280;57876;47.792;12.960;2023-02-12T09:38:36;98739.72;;;16.83;38.32
70434;BME280;57876;47.792;12.960;2023-02-12T09:43:59;98747.94;;;16.83;38.22
70434;BME280;57876;47.792;12.960;2023-02-12T09:46:38;98752.31;;;16.84;38.47
70434;BME280;57876;47.792;12.960;2023-02-12T09:49:14;98755.06;;;16.84;38.54
70434;BME280;57876;47.792;12.960;2023-02-12T09:51:44;98751.50;;;16.84;38.05
70434;BME280;57876;47.792;12.960;2023-02-12T09:54:17;98745.50;;;16.82;38.14
70434;BME280;57876;47.792;12.960;2023-02-12T09:56:47;98750.16;;;16.81;38.08
70434;BME280;57876;47.792;12.960;2023-02-12T09:59:19;98760.53;;;16.84;38.21
70434;BME280;57876;47.792;12.960;2023-02-12T10:01:49;98762.72;;;16.82;38.42
70434;BME280;57876;47.792;12.960;2023-02-12T10:04:13;98759.72;;;16.84;38.22
70434;BME280;57876;47.792;12.960;2023-02-12T10:06:50;98763.25;;;16.84;38.36
70434;BME280;57876;47.792;12.960;2023-02-12T10:22:51;98766.81;;;16.80;38.32
70434;BME280;57876;47.792;12.960;2023-02-12T10:27:56;98763.50;;;16.72;38.58
70434;BME280;57876;47.792;12.960;2023-02-12T10:33:29;98770.63;;;16.73;37.93
70434;BME280;57876;47.792;12.960;2023-02-12T10:36:45;98771.19;;;16.70;38.41
70434;BME280;57876;47.792;12.960;2023-02-12T10:38:48;98754.50;;;16.72;38.28
70434;BME280;57876;47.792;12.960;2023-02-12T10:41:14;98762.13;;;16.75;38.10
70434;BME280;57876;47.792;12.960;2023-02-12T10:43:39;98762.44;;;16.79;38.63
70434;BME280;57876;47.792;12.960;2023-02-12T10:46:04;98759.97;;;16.77;38.50
70434;BME280;57876;47.792;12.960;2023-02-12T10:48:37;98761.63;;;16.78;38.54
70434;BME280;57876;47.792;12.960;2023-02-12T10:53:32;98757.78;;;16.79;38.18
70434;BME280;57876;47.792;12.960;2023-02-12T10:56:23;98742.75;;;16.77;38.38
70434;BME280;57876;47.792;12.960;2023-02-12T11:03:56;98747.94;;;16.73;38.67
70434;BME280;57876;47.792;12.960;2023-02-12T11:06:29;98751.50;;;16.73;38.15
70434;BME280;57876;47.792;12.960;2023-02-12T11:08:58;98737.28;;;16.71;38.49
70434;BME280;57876;47.792;12.960;2023-02-12T11:11:36;98754.22;;;16.73;38.37
70434;BME280;57876;47.792;12.960;2023-02-12T11:14:05;98752.31;;;16.74;38.53
70434;BME280;57876;47.792;12.960;2023-02-12T11:16:33;98752.06;;;16.70;38.61
70434;BME280;57876;47.792;12.960;2023-02-12T11:19:04;98743.56;;;16.67;38.07
70434;BME280;57876;47.792;12.960;2023-02-12T11:22:06;98741.94;;;16.66;38.32
70434;BME280;57876;47.792;12.960;2023-02-12T11:24:42;98743.31;;;16.68;38.14
70434;BME280;57876;47.792;12.960;2023-02-12T11:27:22;98738.66;;;16.64;38.44
70434;BME280;57876;47.792;12.960;2023-02-12T11:32:33;98731.00;;;16.66;38.49
70434;BME280;57876;47.792;12.960;2023-02-12T11:35:26;98736.75;;;16.69;38.05
70434;BME280;57876;47.792;12.960;2023-02-12T11:37:57;98727.72;;;16.64;38.05
70434;BME280;57876;47.792;12.960;2023-02-12T11:40:28;98722.28;;;16.64;38.67
70434;BME280;57876;47.792;12.960;2023-02-12T11:43:01;98725.56;;;16.66;38.49
70434;BME280;57876;47.792;12.960;2023-02-12T11:45:43;98720.63;;;16.68;38.45
70434;BME280;57876;47.792;12.960;2023-02-12T11:48:16;98716.81;;;16.64;38.55
70434;BME280;57876;47.792;12.960;2023-02-12T11:50:46;98701.78;;;16.61;38.39
70434;BME280;57876;47.792;12.960;2023-02-12T11:53:20;98700.44;;;16.59;38.23
70434;BME280;57876;47.792;12.960;2023-02-12T11:55:53;98704.25;;;16.63;38.56
70434;BME280;57876;47.792;12.960;2023-02-12T11:58:24;98715.44;;;16.61;38.56
70434;BME280;57876;47.792;12.960;2023-02-12T12:03:44;98701.53;;;16.58;38.46
70434;BME280;57876;47.792;12.960;2023-02-12T12:11:39;98698.78;;;16.63;38.45
70434;BME280;57876;47.792;12.960;2023-02-12T12:14:15;98695.19;;;16.67;38.26
70434;BME280;57876;47.792;12.960;2023-02-12T12:16:47;98696.03;;;16.68;38.20
70434;BME280;57876;47.792;12.960;2023-02-12T12:19:51;98689.22;;;16.70;38.17
70434;BME280;57876;47.792;12.960;2023-02-12T12:22:43;98680.16;;;16.70;38.33
70434;BME280;57876;47.792;12.960;2023-02-12T12:33:03;98682.91;;;16.70;38.41
70434;BME280;57876;47.792;12.960;2023-02-12T12:35:51;98685.38;;;16.71;38.54
70434;BME280;57876;47.792;12.960;2023-02-12T12:39:13;98666.56;;;16.65;38.21
70434;BME280;57876;47.792;12.960;2023-02-12T12:44:13;98665.16;;;16.67;38.29
70434;BME280;57876;47.792;12.960;2023-02-12T12:46:55;98654.78;;;16.64;38.59
70434;BME280;57876;47.792;12.960;2023-02-12T12:54:59;98658.34;;;16.65;38.24
70434;BME280;57876;47.792;12.960;2023-02-12T12:57:44;98650.16;;;16.65;38.46
70434;BME280;57876;47.792;12.960;2023-02-12T13:00:45;98656.16;;;16.67;38.60
70434;BME280;57876;47.792;12.960;2023-02-12T13:09:14;98641.66;;;16.71;38.47
70434;BME280;57876;47.792;12.960;2023-02-12T13:14:03;98641.91;;;16.70;38.39
70434;BME280;57876;47.792;12.960;2023-02-12T13:16:57;98638.91;;;16.71;38.16
70434;BME280;57876;47.792;12.960;2023-02-12T13:24:44;98641.66;;;16.71;38.34
70434;BME280;57876;47.792;12.960;2023-02-12T13:27:16;98629.13;;;16.65;38.03
70434;BME280;57876;47.792;12.960;2023-02-12T13:29:47;98635.94;;;16.68;38.14
70434;BME280;57876;47.792;12.960;2023-02-12T13:32:15;98647.38;;;16.70;38.54
70434;BME280;57876;47.792;12.960;2023-02-12T13:34:43;98634.28;;;16.67;38.18
70434;BME280;57876;47.792;12.960;2023-02-12T13:37:14;98627.19;;;16.66;38.19
70434;BME280;57876;47.792;12.960;2023-02-12T13:39:42;98626.09;;;16.62;38.61
70434;BME280;57876;47.792;12.960;2023-02-12T13:42:34;98637.56;;;16.69;38.26
70434;BME280;57876;47.792;12.960;2023-02-12T13:50:44;98637.28;;;16.76;38.51
70434;BME280;57876;47.792;12.960;2023-02-12T13:53:21;98636.44;;;16.75;38.61
70434;BME280;57876;47.792;12.960;2023-02-12T14:01:10;98628.81;;;16.77;38.28
70434;BME280;57876;47.792;12.960;2023-02-12T14:03:36;98621.69;;;16.76;38.59
70434;BME280;57876;47.792;12.960;2023-02-12T14:06:21;98619.22;;;16.74;38.10
70434;BME280;57876;47.792;12.960;2023-02-12T14:09:09;98625.50;;;16.75;38.54
70434;BME280;57876;47.792;12.960;2023-02-12T14:11:46;98625.50;;;16.75;38.22
70434;BME280;57876;47.792;12.960;2023-02-12T14:14:24;98627.72;;;16.73;38.56
70434;BME280;57876;47.792;12.960;2023-02-12T14:16:51;98623.88;;;16.74;38.07
70434;BME280;57876;47.792;12.960;2023-02-12T14:24:53;98622.53;;;16.71;38.65
70434;BME280;57876;47.792;12.960;2023-02-12T14:27:25;98625.25;;;16.71;38.32
70434;BME280;57876;47.792;12.960;2023-02-12T14:33:08;98618.97;;;16.71;38.58
70434;BME280;57876;47.792;12.960;2023-02-12T14:35:41;98628.81;;;16.72;38.72
70434;BME280;57876;47.792;12.960;2023-02-12T14:40:44;98622.78;;;16.70;38.14
70434;BME280;57876;47.792;12.960;2023-02-12T14:51:38;98606.97;;;16.62;38.21
70434;BME280;57876;47.792;12.960;2023-02-12T14:54:13;98628.25;;;16.70;38.51
70434;BME280;57876;47.792;12.960;2023-02-12T14:56:45;98632.09;;;16.69;38.72
70434;BME280;57876;47.792;12.960;2023-02-12T14:59:17;98621.72;;;16.66;38.17
70434;BME280;57876;47.792;12.960;2023-02-12T15:01:43;98619.00;;;16.66;38.15
70434;BME280;57876;47.792;12.960;2023-02-12T15:04:19;98626.91;;;16.67;38.02
70434;BME280;57876;47.792;12.960;2023-02-12T15:06:51;98626.91;;;16.67;38.22
70434;BME280;57876;47.792;12.960;2023-02-12T15:09:27;98623.91;;;16.64;38.25
70434;BME280;57876;47.792;12.960;2023-02-12T15:12:10;98621.75;;;16.61;38.31
70434;BME280;57876;47.792;12.960;2023-02-12T15:14:39;98627.75;;;16.68;38.10